createdAt,value
2023-02-16T00:01:59.867Z,93.80
2023-02-16T00:04:32.673Z,93.70
2023-02-16T00:07:01.004Z,93.70
2023-02-16T00:09:29.372Z,93.80
2023-02-16T00:12:15.383Z,93.70
2023-02-16T00:14:43.766Z,93.80
2023-02-16T00:17:12.180Z,93.80
2023-02-16T00:19:42.443Z,93.80
2023-02-16T00:22:12.163Z,93.80
2023-02-16T00:24:40.556Z,93.90
2023-02-16T00:27:14.041Z,93.80
2023-02-16T00:29:44.785Z,93.70
2023-02-16T00:32:17.099Z,93.80
2023-02-16T00:34:46.915Z,93.80
2023-02-16T00:37:15.311Z,93.90
2023-02-16T00:39:46.189Z,93.80
2023-02-16T00:42:19.524Z,93.80
2023-02-16T00:44:49.128Z,93.70
2023-02-16T00:47:19.971Z,93.70
2023-02-16T00:49:54.460Z,93.70
2023-02-16T00:52:32.958Z,93.80
2023-02-16T00:55:01.824Z,93.80
2023-02-16T00:57:33.331Z,93.90
2023-02-16T01:00:05.455Z,93.80
2023-02-16T01:02:35.001Z,93.80
2023-02-16T01:05:04.795Z,93.90
2023-02-16T01:07:53.240Z,93.90
2023-02-16T01:10:39.250Z,93.90
2023-02-16T01:13:07.627Z,93.80
2023-02-16T01:15:36.164Z,93.80
2023-02-16T01:18:04.774Z,93.90
2023-02-16T01:20:35.263Z,93.90
2023-02-16T01:23:03.650Z,93.90
2023-02-16T01:25:32.019Z,94.10
2023-02-16T01:28:00.536Z,93.70
2023-02-16T01:30:29.002Z,93.70
2023-02-16T01:32:57.384Z,93.80
2023-02-16T01:35:29.479Z,93.90
2023-02-16T01:37:59.224Z,93.80
2023-02-16T01:40:35.647Z,93.80
2023-02-16T01:43:05.783Z,93.80
2023-02-16T01:45:35.173Z,93.80
2023-02-16T01:48:05.318Z,93.80
2023-02-16T01:50:41.163Z,93.70
2023-02-16T01:53:15.256Z,93.90
2023-02-16T01:55:46.142Z,93.80
2023-02-16T01:58:15.908Z,93.90
2023-02-16T02:01:36.007Z,93.90
2023-02-16T02:04:24.010Z,93.80
2023-02-16T02:06:52.548Z,93.90
2023-02-16T02:09:27.564Z,93.70
2023-02-16T02:11:58.115Z,93.80
2023-02-16T02:14:28.102Z,93.80
2023-02-16T02:16:58.536Z,93.70
2023-02-16T02:19:26.944Z,93.80
2023-02-16T02:22:27.399Z,93.80
2023-02-16T02:25:20.661Z,93.80
2023-02-16T02:27:51.083Z,93.90
2023-02-16T02:30:25.231Z,93.90
2023-02-16T02:33:06.539Z,93.80
2023-02-16T02:35:42.936Z,94.20
2023-02-16T02:38:13.358Z,93.90
2023-02-16T02:40:47.924Z,93.90
2023-02-16T02:43:18.739Z,93.90
2023-02-16T02:45:48.602Z,93.80
2023-02-16T02:48:16.985Z,93.90
2023-02-16T02:51:02.358Z,93.70
2023-02-16T02:53:30.828Z,93.70
2023-02-16T02:56:17.329Z,94.20
2023-02-16T02:59:13.382Z,93.70
2023-02-16T03:01:43.307Z,93.80
2023-02-16T03:04:11.670Z,93.60
2023-02-16T03:06:41.328Z,93.80
2023-02-16T03:09:12.032Z,93.80
2023-02-16T03:11:59.551Z,93.80
2023-02-16T03:14:31.845Z,93.80
2023-02-16T03:17:18.739Z,93.60
2023-02-16T03:20:05.530Z,93.80
2023-02-16T03:22:52.490Z,93.70
2023-02-16T03:25:38.439Z,93.80
2023-02-16T03:28:25.291Z,93.80
2023-02-16T03:30:55.088Z,93.90
2023-02-16T03:33:23.522Z,93.90
2023-02-16T03:35:52.061Z,94.00
2023-02-16T03:38:20.577Z,93.80
2023-02-16T03:40:53.858Z,93.70
2023-02-16T03:43:23.561Z,93.60
2023-02-16T03:45:51.931Z,93.80
2023-02-16T03:48:21.782Z,93.80
2023-02-16T03:50:50.113Z,93.80
2023-02-16T03:53:19.135Z,93.70
2023-02-16T03:55:48.280Z,93.70
2023-02-16T03:58:18.158Z,93.80
2023-02-16T04:00:46.482Z,93.70
2023-02-16T04:03:15.040Z,93.80
2023-02-16T04:05:44.851Z,93.60
2023-02-16T04:08:13.257Z,93.80
2023-02-16T04:10:41.670Z,93.70
2023-02-16T04:13:09.155Z,93.70
2023-02-16T04:15:37.568Z,93.70
2023-02-16T04:18:08.495Z,93.80
2023-02-16T04:20:37.065Z,93.80
2023-02-16T04:23:06.867Z,93.60
2023-02-16T04:25:35.302Z,93.70
2023-02-16T04:28:03.673Z,93.90
2023-02-16T04:30:35.385Z,93.80
2023-02-16T04:33:03.784Z,93.80
2023-02-16T04:35:41.360Z,93.80
2023-02-16T04:38:11.103Z,93.70
2023-02-16T04:40:39.492Z,93.80
2023-02-16T04:43:07.862Z,93.80
2023-02-16T04:45:36.192Z,93.70
2023-02-16T04:48:04.711Z,93.70
2023-02-16T04:50:33.037Z,93.70
2023-02-16T04:53:03.755Z,93.80
2023-02-16T04:55:34.612Z,93.80
2023-02-16T04:58:02.921Z,93.70
2023-02-16T05:00:31.263Z,93.80
2023-02-16T05:03:01.148Z,93.70
2023-02-16T05:05:29.498Z,93.80
2023-02-16T05:07:57.835Z,93.80
2023-02-16T05:10:26.151Z,93.80
2023-02-16T05:13:13.433Z,93.70
2023-02-16T05:15:44.964Z,93.80
2023-02-16T05:18:16.403Z,93.80
2023-02-16T05:21:02.538Z,93.80
2023-02-16T05:23:31.042Z,93.70
2023-02-16T05:25:59.354Z,93.70
2023-02-16T05:28:29.096Z,93.80
2023-02-16T05:30:59.989Z,93.80
2023-02-16T05:33:28.410Z,93.80
2023-02-16T05:35:56.793Z,93.80
2023-02-16T05:38:26.438Z,93.80
2023-02-16T05:40:57.597Z,93.80
2023-02-16T05:43:30.640Z,93.80
2023-02-16T05:46:01.926Z,93.70
2023-02-16T05:48:30.334Z,93.80
2023-02-16T05:50:58.721Z,93.90
2023-02-16T05:53:27.185Z,93.80
2023-02-16T05:55:55.524Z,94.00
2023-02-16T05:58:24.063Z,93.90
2023-02-16T06:00:54.176Z,93.90
2023-02-16T06:03:22.612Z,93.90
2023-02-16T06:05:54.026Z,93.90
2023-02-16T06:08:22.590Z,93.90
2023-02-16T06:10:51.106Z,93.90
2023-02-16T06:13:19.666Z,93.90
2023-02-16T06:15:48.182Z,94.10
2023-02-16T06:18:18.212Z,94.00
2023-02-16T06:20:46.535Z,94.00
2023-02-16T06:23:15.030Z,94.00
2023-02-16T06:25:46.136Z,94.50
2023-02-16T06:28:14.462Z,94.30
2023-02-16T06:30:42.995Z,94.60
2023-02-16T06:33:11.319Z,94.20
2023-02-16T06:35:41.041Z,94.10
2023-02-16T06:38:09.364Z,94.00
2023-02-16T06:40:37.673Z,94.10
2023-02-16T06:43:06.060Z,94.30
2023-02-16T06:45:34.484Z,94.20
2023-02-16T06:48:05.740Z,94.10
2023-02-16T06:50:34.138Z,94.20
2023-02-16T06:53:03.942Z,94.20
2023-02-16T06:55:38.535Z,94.60
2023-02-16T06:58:07.538Z,94.30
2023-02-16T07:00:38.130Z,94.30
2023-02-16T07:03:06.601Z,94.80
2023-02-16T07:05:34.915Z,94.60
2023-02-16T07:08:04.881Z,94.80
2023-02-16T07:10:47.738Z,94.90
2023-02-16T07:13:18.065Z,95.00
2023-02-16T07:15:46.695Z,95.10
2023-02-16T07:18:16.515Z,95.00
2023-02-16T07:20:47.918Z,94.90
2023-02-16T07:23:17.650Z,94.90
2023-02-16T07:25:48.885Z,95.00
2023-02-16T07:28:17.562Z,94.80
2023-02-16T07:30:45.979Z,94.80
2023-02-16T07:33:15.477Z,94.70
2023-02-16T07:35:46.935Z,94.60
2023-02-16T07:38:15.297Z,94.60
2023-02-16T07:40:45.088Z,94.60
2023-02-16T07:43:13.414Z,94.70
2023-02-16T07:45:42.424Z,94.70
2023-02-16T07:48:10.825Z,94.60
2023-02-16T07:50:39.188Z,94.80
2023-02-16T07:53:07.652Z,94.70
2023-02-16T07:55:40.504Z,94.60
2023-02-16T07:58:10.331Z,94.60
2023-02-16T08:00:38.818Z,94.60
2023-02-16T08:03:07.365Z,94.60
2023-02-16T08:05:38.839Z,94.60
2023-02-16T08:08:07.260Z,94.50
2023-02-16T08:10:35.702Z,95.00
2023-02-16T08:13:04.013Z,94.70
2023-02-16T08:15:33.678Z,94.90
2023-02-16T08:18:01.969Z,94.50
2023-02-16T08:20:46.030Z,94.40
2023-02-16T08:23:16.697Z,94.50
2023-02-16T08:25:45.789Z,94.30
2023-02-16T08:28:19.324Z,94.30
2023-02-16T08:30:49.723Z,94.30
2023-02-16T08:33:18.788Z,94.30
2023-02-16T08:35:47.142Z,94.30
2023-02-16T08:38:17.142Z,94.40
2023-02-16T08:40:50.323Z,94.20
2023-02-16T08:43:18.847Z,94.30
2023-02-16T08:45:48.970Z,94.30
2023-02-16T08:48:17.800Z,94.30
2023-02-16T08:50:53.214Z,94.20
2023-02-16T08:53:23.054Z,94.30
2023-02-16T08:55:55.633Z,94.20
2023-02-16T08:58:24.402Z,94.10
2023-02-16T09:00:54.185Z,94.00
2023-02-16T09:03:22.634Z,93.90
2023-02-16T09:05:52.824Z,94.10
2023-02-16T09:08:21.575Z,94.10
2023-02-16T09:10:52.090Z,94.10
2023-02-16T09:13:23.268Z,94.00
2023-02-16T09:15:55.973Z,94.00
2023-02-16T09:18:26.842Z,94.00
2023-02-16T09:21:00.014Z,94.10
2023-02-16T09:23:28.329Z,94.10
2023-02-16T09:25:56.619Z,94.00
2023-02-16T09:28:24.993Z,94.00
2023-02-16T09:30:55.115Z,94.10
2023-02-16T09:33:25.188Z,94.00
2023-02-16T09:35:53.791Z,94.00
2023-02-16T09:38:22.842Z,94.00
2023-02-16T09:40:51.159Z,94.00
2023-02-16T09:43:25.345Z,93.90
2023-02-16T09:45:54.884Z,93.90
2023-02-16T09:48:30.370Z,94.00
2023-02-16T09:50:59.182Z,93.90
2023-02-16T09:53:31.522Z,94.00
2023-02-16T09:56:06.222Z,93.90
2023-02-16T09:58:38.076Z,94.00
2023-02-16T10:01:09.577Z,94.20
2023-02-16T10:03:47.553Z,94.10
2023-02-16T10:06:29.159Z,94.20
2023-02-16T10:09:00.824Z,94.20
2023-02-16T10:11:41.612Z,94.40
2023-02-16T10:14:15.239Z,94.40
2023-02-16T10:16:49.662Z,94.30
2023-02-16T10:19:21.511Z,94.40
2023-02-16T10:21:52.547Z,94.50
2023-02-16T10:24:20.888Z,94.40
2023-02-16T10:26:51.072Z,94.50
2023-02-16T10:29:20.688Z,94.40
2023-02-16T10:31:51.236Z,94.40
2023-02-16T10:34:23.380Z,94.40
2023-02-16T10:37:34.413Z,94.30
2023-02-16T10:40:19.741Z,94.30
2023-02-16T10:42:53.424Z,94.20
2023-02-16T10:45:27.157Z,94.20
2023-02-16T10:47:55.823Z,94.20
2023-02-16T10:50:27.739Z,94.20
2023-02-16T10:52:58.967Z,94.20
2023-02-16T10:55:27.663Z,94.30
2023-02-16T10:57:58.289Z,94.20
2023-02-16T11:00:34.986Z,94.20
2023-02-16T11:03:03.683Z,94.30
2023-02-16T11:05:36.034Z,94.40
2023-02-16T11:08:04.754Z,94.30
2023-02-16T11:10:43.921Z,94.30
2023-02-16T11:13:21.850Z,94.30
2023-02-16T11:15:52.249Z,94.20
2023-02-16T11:18:28.739Z,94.30
2023-02-16T11:21:00.905Z,94.20
2023-02-16T11:23:30.053Z,94.20
2023-02-16T11:26:00.334Z,94.20
2023-02-16T11:28:32.646Z,94.20
2023-02-16T11:31:03.480Z,94.20
2023-02-16T11:33:32.686Z,94.10
2023-02-16T11:36:05.540Z,94.10
2023-02-16T11:38:37.557Z,94.00
2023-02-16T11:41:07.305Z,94.00
2023-02-16T11:43:37.551Z,93.90
2023-02-16T11:46:08.703Z,94.00
2023-02-16T11:48:38.024Z,94.00
2023-02-16T11:51:11.735Z,94.00
2023-02-16T11:53:43.670Z,94.00
2023-02-16T11:56:15.926Z,94.00
2023-02-16T11:58:47.022Z,94.00
2023-02-16T12:01:23.128Z,93.90
2023-02-16T12:04:12.825Z,93.90
2023-02-16T12:06:51.677Z,93.80
2023-02-16T12:09:24.394Z,93.70
2023-02-16T12:11:59.020Z,93.80
2023-02-16T12:14:39.815Z,93.80
2023-02-16T12:17:16.452Z,93.90
2023-02-16T12:19:46.158Z,93.90
2023-02-16T12:22:27.454Z,94.00
2023-02-16T12:25:03.800Z,93.90
2023-02-16T12:27:34.735Z,93.90
2023-02-16T12:30:09.801Z,93.90
2023-02-16T12:32:48.232Z,93.90
2023-02-16T12:35:33.783Z,93.90
2023-02-16T12:38:06.205Z,93.90
2023-02-16T12:40:42.549Z,93.90
2023-02-16T12:43:19.626Z,93.80
2023-02-16T12:45:48.185Z,93.80
2023-02-16T12:48:28.378Z,93.80
2023-02-16T12:50:56.738Z,93.80
2023-02-16T12:53:41.202Z,93.80
2023-02-16T12:56:12.508Z,93.80
2023-02-16T12:58:41.475Z,93.80
2023-02-16T13:01:16.471Z,93.90
2023-02-16T13:03:50.129Z,93.90
2023-02-16T13:06:21.181Z,93.90
2023-02-16T13:08:55.691Z,93.80
2023-02-16T13:11:25.679Z,93.80
2023-02-16T13:13:55.906Z,93.70
2023-02-16T13:16:30.576Z,93.70
2023-02-16T13:18:59.340Z,93.70
2023-02-16T13:21:50.821Z,93.70
2023-02-16T13:24:31.758Z,93.70
2023-02-16T13:27:13.534Z,93.70
2023-02-16T13:29:55.104Z,93.70
2023-02-16T13:32:34.742Z,93.60
2023-02-16T13:35:12.631Z,93.70
2023-02-16T13:37:49.774Z,93.60
2023-02-16T13:40:23.656Z,93.70
2023-02-16T13:43:13.998Z,93.60
2023-02-16T13:45:45.630Z,93.60
2023-02-16T13:48:15.587Z,93.60
2023-02-16T13:50:44.048Z,93.60
2023-02-16T13:53:19.428Z,93.60
2023-02-16T13:55:50.747Z,93.60
2023-02-16T13:58:32.609Z,93.50
2023-02-16T14:01:09.401Z,93.60
2023-02-16T14:03:39.287Z,93.60
2023-02-16T14:06:32.206Z,93.70
2023-02-16T14:09:33.433Z,93.70
2023-02-16T14:12:07.312Z,93.70
2023-02-16T14:14:37.775Z,93.70
2023-02-16T14:17:23.500Z,93.80
2023-02-16T14:19:53.858Z,93.80
2023-02-16T14:22:23.963Z,93.70
2023-02-16T14:24:55.818Z,93.70
2023-02-16T14:27:46.206Z,93.80
2023-02-16T14:30:20.853Z,93.70
2023-02-16T14:32:51.164Z,93.80
2023-02-16T14:35:20.877Z,93.80
2023-02-16T14:37:54.406Z,93.80
2023-02-16T14:40:53.129Z,93.80
2023-02-16T14:43:31.820Z,93.80
2023-02-16T14:46:19.816Z,93.90
2023-02-16T14:49:00.429Z,93.90
2023-02-16T14:51:53.381Z,93.80
2023-02-16T14:54:48.357Z,93.90
2023-02-16T14:57:16.970Z,93.90
2023-02-16T14:59:49.635Z,94.00
2023-02-16T15:02:31.207Z,94.10
2023-02-16T15:05:01.996Z,94.10
2023-02-16T15:07:30.456Z,94.10
2023-02-16T15:09:59.987Z,94.20
2023-02-16T15:12:29.745Z,94.20
2023-02-16T15:15:01.276Z,94.20
2023-02-16T15:17:31.625Z,94.20
2023-02-16T15:20:05.165Z,94.20
2023-02-16T15:22:33.587Z,94.20
2023-02-16T15:25:02.912Z,94.20
2023-02-16T15:27:34.969Z,94.30
2023-02-16T15:30:21.178Z,94.30
2023-02-16T15:32:53.719Z,94.40
2023-02-16T15:35:27.684Z,94.40
2023-02-16T15:38:03.680Z,94.50
2023-02-16T15:40:35.143Z,94.50
2023-02-16T15:43:15.346Z,94.60
2023-02-16T15:45:50.228Z,94.50
2023-02-16T15:48:24.007Z,94.50
2023-02-16T15:50:53.520Z,94.60
2023-02-16T15:53:40.417Z,94.60
2023-02-16T15:56:26.212Z,94.70
2023-02-16T15:58:54.675Z,94.70
2023-02-16T16:01:31.513Z,94.80
2023-02-16T16:04:05.451Z,94.90
2023-02-16T16:06:38.021Z,95.00
2023-02-16T16:09:08.538Z,95.00
2023-02-16T16:11:37.757Z,95.40
2023-02-16T16:14:08.348Z,95.10
2023-02-16T16:16:38.040Z,95.00
2023-02-16T16:19:14.086Z,95.00
2023-02-16T16:21:48.106Z,95.20
2023-02-16T16:24:32.604Z,95.20
2023-02-16T16:27:04.412Z,95.30
2023-02-16T16:29:34.417Z,95.10
2023-02-16T16:32:04.658Z,95.20
2023-02-16T16:34:41.580Z,95.30
2023-02-16T16:37:23.848Z,95.30
2023-02-16T16:40:00.585Z,95.40
2023-02-16T16:42:31.070Z,95.40
2023-02-16T16:45:08.864Z,95.50
2023-02-16T16:47:44.319Z,95.70
2023-02-16T16:50:33.162Z,96.10
2023-02-16T16:53:01.669Z,96.30
2023-02-16T16:55:34.400Z,96.50
2023-02-16T16:58:04.802Z,96.60
2023-02-16T17:00:35.483Z,96.70
2023-02-16T17:03:09.574Z,96.70
2023-02-16T17:05:41.392Z,96.90
2023-02-16T17:08:09.744Z,97.00
2023-02-16T17:10:38.467Z,96.90
2023-02-16T17:13:06.928Z,96.90
2023-02-16T17:15:38.858Z,96.90
2023-02-16T17:18:10.741Z,97.30
2023-02-16T17:20:44.855Z,96.90
2023-02-16T17:23:13.270Z,97.00
2023-02-16T17:25:42.110Z,96.90
2023-02-16T17:28:11.892Z,97.00
2023-02-16T17:30:40.288Z,96.90
2023-02-16T17:33:13.732Z,97.00
2023-02-16T17:35:42.949Z,97.10
2023-02-16T17:38:11.943Z,97.10
2023-02-16T17:40:41.246Z,97.10
2023-02-16T17:43:13.691Z,97.20
2023-02-16T17:45:42.325Z,97.10
2023-02-16T17:48:15.915Z,97.10
2023-02-16T17:50:44.277Z,97.10
2023-02-16T17:53:18.485Z,97.00
2023-02-16T17:55:47.432Z,97.10
2023-02-16T17:58:16.066Z,97.20
2023-02-16T18:00:44.785Z,97.20
2023-02-16T18:03:21.711Z,97.10
2023-02-16T18:05:52.484Z,97.20
2023-02-16T18:08:20.876Z,97.20
2023-02-16T18:10:53.897Z,97.20
2023-02-16T18:13:22.296Z,97.20
2023-02-16T18:15:50.677Z,97.20
2023-02-16T18:18:20.362Z,97.40
2023-02-16T18:20:48.945Z,97.50
2023-02-16T18:23:17.446Z,97.60
2023-02-16T18:25:50.045Z,97.60
2023-02-16T18:28:19.481Z,97.50
2023-02-16T18:30:49.205Z,97.90
2023-02-16T18:33:17.730Z,97.60
2023-02-16T18:35:47.419Z,97.60
2023-02-16T18:38:19.960Z,97.50
2023-02-16T18:40:49.740Z,97.50
2023-02-16T18:43:18.146Z,97.50
2023-02-16T18:45:46.624Z,97.40
2023-02-16T18:48:16.657Z,97.60
2023-02-16T18:50:45.459Z,97.50
2023-02-16T18:53:15.288Z,97.50
2023-02-16T18:55:46.483Z,97.50
2023-02-16T18:58:15.136Z,97.60
2023-02-16T19:00:43.985Z,97.60
2023-02-16T19:03:15.190Z,97.60
2023-02-16T19:05:43.912Z,97.60
2023-02-16T19:08:12.254Z,97.70
2023-02-16T19:10:41.971Z,97.90
2023-02-16T19:13:13.411Z,97.80
2023-02-16T19:15:45.511Z,97.80
2023-02-16T19:18:13.822Z,97.80
2023-02-16T19:20:42.203Z,98.00
2023-02-16T19:23:10.729Z,97.80
2023-02-16T19:25:42.114Z,98.10
2023-02-16T19:28:11.876Z,97.90
2023-02-16T19:30:42.941Z,97.90
2023-02-16T19:33:11.343Z,97.90
2023-02-16T19:35:42.144Z,97.90
2023-02-16T19:38:10.509Z,97.90
2023-02-16T19:40:40.031Z,97.80
2023-02-16T19:43:08.372Z,97.80
2023-02-16T19:45:42.638Z,97.90
2023-02-16T19:48:11.011Z,97.90
2023-02-16T19:50:39.372Z,97.90
2023-02-16T19:53:08.941Z,97.80
2023-02-16T19:55:44.162Z,97.80
2023-02-16T19:58:14.764Z,97.80
2023-02-16T20:00:44.675Z,97.70
2023-02-16T20:03:13.081Z,97.80
2023-02-16T20:05:41.524Z,97.70
2023-02-16T20:08:09.932Z,97.80
2023-02-16T20:10:40.795Z,97.70
2023-02-16T20:13:11.970Z,97.70
2023-02-16T20:15:44.716Z,98.00
2023-02-16T20:18:13.063Z,97.70
2023-02-16T20:20:44.205Z,97.80
2023-02-16T20:23:15.842Z,97.70
2023-02-16T20:25:44.213Z,97.70
2023-02-16T20:28:12.532Z,97.70
2023-02-16T20:30:44.171Z,97.70
2023-02-16T20:33:12.484Z,97.80
2023-02-16T20:35:42.263Z,97.80
2023-02-16T20:38:17.904Z,97.80
2023-02-16T20:40:51.924Z,97.80
2023-02-16T20:43:20.978Z,97.80
2023-02-16T20:45:50.663Z,97.80
2023-02-16T20:48:20.211Z,97.80
2023-02-16T20:50:54.151Z,97.80
2023-02-16T20:53:22.599Z,97.90
2023-02-16T20:55:53.009Z,97.80
2023-02-16T20:58:21.710Z,97.80
2023-02-16T21:00:51.561Z,97.80
2023-02-16T21:03:19.898Z,97.80
2023-02-16T21:05:53.551Z,97.80
2023-02-16T21:08:22.234Z,97.70
2023-02-16T21:10:50.661Z,97.70
2023-02-16T21:13:19.028Z,97.70
2023-02-16T21:15:47.441Z,97.70
2023-02-16T21:18:17.166Z,97.70
2023-02-16T21:20:45.522Z,97.70
2023-02-16T21:23:16.819Z,97.60
2023-02-16T21:25:45.193Z,97.60
2023-02-16T21:28:13.554Z,97.60
2023-02-16T21:30:44.608Z,97.60
2023-02-16T21:33:12.925Z,97.60
2023-02-16T21:35:42.576Z,97.60
2023-02-16T21:38:11.065Z,97.60
2023-02-16T21:40:56.949Z,97.60
2023-02-16T21:43:29.298Z,97.50
2023-02-16T21:46:00.871Z,97.50
2023-02-16T21:48:46.822Z,97.60
2023-02-16T21:51:17.352Z,97.60
2023-02-16T21:53:47.520Z,97.60
2023-02-16T21:56:31.025Z,97.60
2023-02-16T21:58:59.378Z,97.60
2023-02-16T22:01:29.024Z,97.60
2023-02-16T22:04:03.563Z,97.50
2023-02-16T22:06:37.088Z,97.50
2023-02-16T22:09:06.638Z,97.50
2023-02-16T22:11:37.144Z,97.60
2023-02-16T22:14:05.490Z,97.50
2023-02-16T22:16:37.758Z,97.50
2023-02-16T22:19:09.407Z,97.60
2023-02-16T22:21:40.362Z,97.50
2023-02-16T22:24:15.324Z,97.70
2023-02-16T22:26:43.750Z,97.90
2023-02-16T22:29:12.157Z,98.00
2023-02-16T22:31:44.789Z,98.20
2023-02-16T22:34:14.676Z,98.20
2023-02-16T22:36:44.459Z,98.20
2023-02-16T22:39:13.666Z,98.20
2023-02-16T22:41:42.068Z,98.10
2023-02-16T22:44:11.086Z,98.20
2023-02-16T22:46:39.462Z,98.40
2023-02-16T22:49:07.849Z,98.40
2023-02-16T22:51:37.835Z,98.30
2023-02-16T22:54:07.586Z,98.50
2023-02-16T22:56:39.399Z,98.30
2023-02-16T22:59:07.745Z,98.40
2023-02-16T23:01:37.389Z,98.40
2023-02-16T23:04:06.108Z,98.40
2023-02-16T23:06:36.539Z,98.50
2023-02-16T23:09:07.386Z,98.50
2023-02-16T23:11:36.176Z,98.40
2023-02-16T23:14:04.603Z,98.50
2023-02-16T23:16:33.029Z,98.60
2023-02-16T23:19:01.449Z,98.60
2023-02-16T23:21:30.509Z,98.60
2023-02-16T23:23:59.209Z,98.40
2023-02-16T23:26:31.176Z,98.60
2023-02-16T23:29:00.953Z,98.40
2023-02-16T23:31:32.308Z,98.40
2023-02-16T23:34:02.448Z,98.30
2023-02-16T23:36:31.223Z,98.40
2023-02-16T23:39:01.124Z,98.50
2023-02-16T23:41:30.881Z,98.50
2023-02-16T23:44:01.077Z,98.50
2023-02-16T23:46:29.747Z,98.60
2023-02-16T23:48:58.156Z,98.50
2023-02-16T23:51:26.687Z,98.50
2023-02-16T23:53:55.081Z,98.50
2023-02-16T23:56:24.022Z,98.50
2023-02-16T23:58:53.793Z,98.40
